Portada
METAR-TAF:

METAR-TAF

Aeroports :

Touho, Nova Caledònia

latitud: 20-47-25S, longitud: 165-15-34E, altitud: 3 m

METAR: manca

Hora: 05:30 (18:30 UTC)

Pronòstic

L'informe es va fer fa 1 hora i 30 minuts, a les 17:00 UTC
Pronòstic vàlid del 15 a les 18 UTC al 16 a les 18 UTC
Vent 15 kt del Sud-Est
Visibilitat 10 km o més
Núvols disperses a una alçada de 2000 ft
Cel ennuvolat a una alçada de 3000 ft
Probabilitat 30% :
Temporalment
l' 15 a les 18 UTC al 15 a les 23 UTC
Visibilitat: 4500 m
Cel ennuvolat a una alçada de 1400 ft
Escasses núvols a una alçada de 1800 ft, Cumulus congestus.
xàfecs de pluja
Temporalment
l' 15 a les 23 UTC al 16 a les 06 UTC
Vent 15 kt del Est/Sud-Est amb ràfegues de 25 kt

TAF: NWWU 151700Z 1518/1618 13015KT 9999 SCT020 BKN030 PROB30 TEMPO 1518/1523 4500 SHRA BKN014 FEW018TCU TEMPO 1523/1606 12015G25KT

Observacions i pronòstics meteorològics de més de 4000 aeroports (METAR i TAF).

Les estacions disponibles són els punts grocs i vermells al mapa.

Posi el ratolí al punt desitjat per veure el nom de l'estació.

Feu clic per veure les observacions i els pronòstics meteorològics.

Per canviar el mapa: feu clic els botons verds amb una creu de color negre per apropar; al botó verd amb un guió per allunyar la imatge; o en les fletxes verdes per a mapes adjacents.


METAR-TAF: